createdAt,value
2017-12-25T00:00:24.381Z,1014.37
2017-12-25T00:01:24.357Z,1014.39
2017-12-25T00:02:24.335Z,1014.30
2017-12-25T00:03:24.314Z,1014.38
2017-12-25T00:04:24.301Z,1014.29
2017-12-25T00:05:24.279Z,1014.27
2017-12-25T00:06:24.259Z,1014.30
2017-12-25T00:07:24.240Z,1014.28
2017-12-25T00:08:24.218Z,1014.26
2017-12-25T00:09:24.197Z,1014.20
2017-12-25T00:10:24.186Z,1014.22
2017-12-25T00:11:24.171Z,1014.20
2017-12-25T00:12:24.144Z,1014.18
2017-12-25T00:13:24.122Z,1014.21
2017-12-25T00:14:24.098Z,1014.41
2017-12-25T00:15:24.083Z,1014.21
2017-12-25T00:16:24.064Z,1014.24
2017-12-25T00:17:24.043Z,1014.16
2017-12-25T00:18:24.026Z,1014.23
2017-12-25T00:19:24.006Z,1014.25
2017-12-25T00:20:23.991Z,1014.15
2017-12-25T00:21:23.971Z,1014.14
2017-12-25T00:22:23.948Z,1014.13
2017-12-25T00:23:23.932Z,1014.15
2017-12-25T00:24:23.906Z,1014.11
2017-12-25T00:25:23.887Z,1014.12
2017-12-25T00:26:23.865Z,1014.12
2017-12-25T00:27:23.848Z,1014.16
2017-12-25T00:28:23.829Z,1014.12
2017-12-25T00:29:23.815Z,1014.08
2017-12-25T00:30:23.793Z,1014.03
2017-12-25T00:31:23.773Z,1014.02
2017-12-25T00:32:23.757Z,1013.99
2017-12-25T00:33:23.732Z,1014.09
2017-12-25T00:34:23.720Z,1014.06
2017-12-25T00:35:23.692Z,1014.00
2017-12-25T00:36:23.679Z,1014.02
2017-12-25T00:37:23.661Z,1013.98
2017-12-25T00:38:23.638Z,1013.91
2017-12-25T00:39:23.628Z,1013.88
2017-12-25T00:40:23.600Z,1013.94
2017-12-25T00:41:23.575Z,1013.96
2017-12-25T00:42:23.568Z,1013.89
2017-12-25T00:43:23.536Z,1013.95
2017-12-25T00:44:23.520Z,1013.95
2017-12-25T00:45:23.501Z,1013.94
2017-12-25T00:46:23.478Z,1013.90
2017-12-25T00:47:23.459Z,1013.90
2017-12-25T00:48:23.440Z,1013.93
2017-12-25T00:49:23.415Z,1013.91
2017-12-25T00:50:23.407Z,1013.81
2017-12-25T00:51:23.381Z,1013.81
2017-12-25T00:52:23.362Z,1013.84
2017-12-25T00:53:23.343Z,1013.79
2017-12-25T00:54:23.320Z,1013.82
2017-12-25T00:55:23.303Z,1013.81
2017-12-25T00:56:23.290Z,1013.76
2017-12-25T00:57:23.256Z,1013.80
2017-12-25T00:58:23.241Z,1013.79
2017-12-25T00:59:23.226Z,1013.76
2017-12-25T01:00:23.199Z,1013.76
2017-12-25T01:01:23.189Z,1013.73
2017-12-25T01:02:23.163Z,1013.73
2017-12-25T01:03:23.144Z,1013.75
2017-12-25T01:04:23.131Z,1013.67
2017-12-25T01:05:23.106Z,1013.66
2017-12-25T01:06:23.084Z,1013.65
2017-12-25T01:07:23.062Z,1013.65
2017-12-25T01:08:23.045Z,1013.64
2017-12-25T01:09:23.019Z,1013.60
2017-12-25T01:10:23.003Z,1013.63
2017-12-25T01:11:22.992Z,1013.60
2017-12-25T01:12:22.970Z,1013.60
2017-12-25T01:13:22.949Z,1013.59
2017-12-25T01:14:22.925Z,1013.56
2017-12-25T01:15:22.913Z,1013.58
2017-12-25T01:16:22.886Z,1013.57
2017-12-25T01:17:22.863Z,1013.57
2017-12-25T01:18:22.849Z,1013.60
2017-12-25T01:19:22.825Z,1013.59
2017-12-25T01:20:22.809Z,1013.54
2017-12-25T01:21:22.790Z,1013.56
2017-12-25T01:22:22.765Z,1013.62
2017-12-25T01:23:22.749Z,1013.61
2017-12-25T01:24:22.726Z,1013.61
2017-12-25T01:25:22.710Z,1013.64
2017-12-25T01:26:22.686Z,1013.57
2017-12-25T01:27:22.668Z,1013.57
2017-12-25T01:28:22.646Z,1013.56
2017-12-25T01:29:22.630Z,1013.52
2017-12-25T01:30:22.618Z,1013.52
2017-12-25T01:31:22.591Z,1013.56
2017-12-25T01:32:22.577Z,1013.51
2017-12-25T01:33:22.549Z,1013.50
2017-12-25T01:34:22.536Z,1013.50
2017-12-25T01:35:22.512Z,1013.48
2017-12-25T01:36:22.498Z,1013.53
2017-12-25T01:37:22.472Z,1013.51
2017-12-25T01:38:22.463Z,1013.55
2017-12-25T01:39:22.432Z,1013.55
2017-12-25T01:40:22.415Z,1013.53
2017-12-25T01:41:22.396Z,1013.53
2017-12-25T01:42:22.383Z,1013.52
2017-12-25T01:43:22.354Z,1013.52
2017-12-25T01:44:22.339Z,1013.45
2017-12-25T01:45:22.323Z,1013.49
2017-12-25T01:46:22.303Z,1013.54
2017-12-25T01:47:22.274Z,1013.55
2017-12-25T01:48:22.259Z,1013.49
2017-12-25T01:49:22.236Z,1013.62
2017-12-25T01:50:22.225Z,1013.52
2017-12-25T01:51:22.195Z,1013.58
2017-12-25T01:52:22.177Z,1013.57
2017-12-25T01:53:22.167Z,1013.55
2017-12-25T01:54:22.142Z,1013.58
2017-12-25T01:55:22.120Z,1013.52
2017-12-25T01:56:22.098Z,1013.43
2017-12-25T01:57:22.083Z,1013.46
2017-12-25T01:58:22.066Z,1013.42
2017-12-25T01:59:22.042Z,1013.44
2017-12-25T02:00:22.021Z,1013.49
2017-12-25T02:01:21.998Z,1013.47
2017-12-25T02:02:21.981Z,1013.45
2017-12-25T02:03:21.965Z,1013.50
2017-12-25T02:04:21.944Z,1013.47
2017-12-25T02:05:21.926Z,1013.44
2017-12-25T02:06:21.905Z,1013.38
2017-12-25T02:07:21.888Z,1013.40
2017-12-25T02:08:21.864Z,1013.38
2017-12-25T02:09:21.847Z,1013.40
2017-12-25T02:10:21.832Z,1013.40
2017-12-25T02:11:21.806Z,1013.41
2017-12-25T02:12:21.787Z,1013.44
2017-12-25T02:13:21.777Z,1013.43
2017-12-25T02:14:21.745Z,1013.43
2017-12-25T02:15:21.730Z,1013.42
2017-12-25T02:16:21.709Z,1013.36
2017-12-25T02:17:21.688Z,1013.30
2017-12-25T02:18:21.666Z,1013.36
2017-12-25T02:19:21.650Z,1013.38
2017-12-25T02:20:21.627Z,1013.30
2017-12-25T02:21:21.608Z,1013.38
2017-12-25T02:22:21.596Z,1013.31
2017-12-25T02:23:21.584Z,1013.37
2017-12-25T02:24:21.554Z,1013.35
2017-12-25T02:25:21.531Z,1013.46
2017-12-25T02:26:21.514Z,1013.45
2017-12-25T02:27:21.499Z,1013.42
2017-12-25T02:28:21.479Z,1013.37
2017-12-25T02:29:21.457Z,1013.38
2017-12-25T02:30:21.440Z,1013.38
2017-12-25T02:31:21.420Z,1013.44
2017-12-25T02:32:21.401Z,1013.48
2017-12-25T02:33:21.381Z,1013.39
2017-12-25T02:34:21.362Z,1013.41
2017-12-25T02:35:21.343Z,1013.39
2017-12-25T02:36:21.320Z,1013.36
2017-12-25T02:37:21.303Z,1013.33
2017-12-25T02:38:21.281Z,1013.33
2017-12-25T02:39:21.262Z,1013.31
2017-12-25T02:40:21.244Z,1013.31
2017-12-25T02:41:21.221Z,1013.34
2017-12-25T02:42:21.209Z,1013.34
2017-12-25T02:43:21.194Z,1013.26
2017-12-25T02:44:21.167Z,1013.26
2017-12-25T02:45:21.144Z,1013.30
2017-12-25T02:46:21.142Z,1013.31
2017-12-25T02:47:21.103Z,1013.27
2017-12-25T02:48:21.087Z,1013.28
2017-12-25T02:49:21.070Z,1013.28
2017-12-25T02:50:21.050Z,1013.31
2017-12-25T02:51:21.029Z,1013.29
2017-12-25T02:52:21.007Z,1013.26
2017-12-25T02:53:20.991Z,1013.28
2017-12-25T02:54:20.969Z,1013.29
2017-12-25T02:55:20.959Z,1013.28
2017-12-25T02:56:20.928Z,1013.26
2017-12-25T02:57:20.912Z,1013.24
2017-12-25T02:58:20.890Z,1013.22
2017-12-25T02:59:20.869Z,1013.22
2017-12-25T03:00:20.848Z,1013.19
2017-12-25T03:01:20.835Z,1013.24
2017-12-25T03:02:20.809Z,1013.20
2017-12-25T03:03:20.794Z,1013.24
2017-12-25T03:04:20.773Z,1013.19
2017-12-25T03:05:20.762Z,1013.19
2017-12-25T03:06:20.738Z,1013.20
2017-12-25T03:07:20.714Z,1013.20
2017-12-25T03:08:20.698Z,1013.13
2017-12-25T03:09:20.674Z,1013.13
2017-12-25T03:10:20.655Z,1013.15
2017-12-25T03:11:20.633Z,1013.14
2017-12-25T03:12:20.622Z,1013.14
2017-12-25T03:13:20.603Z,1013.10
2017-12-25T03:14:20.579Z,1013.13
2017-12-25T03:15:20.560Z,1013.14
2017-12-25T03:16:20.537Z,1013.12
2017-12-25T03:17:20.525Z,1013.16
2017-12-25T03:18:20.502Z,1013.08
2017-12-25T03:19:20.478Z,1013.07
2017-12-25T03:20:20.467Z,1013.13
2017-12-25T03:21:20.441Z,1013.11
2017-12-25T03:22:20.428Z,1013.07
2017-12-25T03:23:20.400Z,1013.12
2017-12-25T03:24:20.390Z,1013.13
2017-12-25T03:25:20.369Z,1013.07
2017-12-25T03:26:20.346Z,1013.08
2017-12-25T03:27:20.326Z,1013.08
2017-12-25T03:28:20.307Z,1013.05
2017-12-25T03:29:20.284Z,1013.03
2017-12-25T03:30:20.272Z,1013.03
2017-12-25T03:31:20.247Z,1013.02
2017-12-25T03:32:20.228Z,1012.94
2017-12-25T03:33:20.208Z,1012.94
2017-12-25T03:34:20.188Z,1012.98
2017-12-25T03:35:20.167Z,1012.97
2017-12-25T03:36:20.150Z,1012.98
2017-12-25T03:37:20.128Z,1012.95
2017-12-25T03:38:20.109Z,1012.98
2017-12-25T03:39:20.090Z,1012.92
2017-12-25T03:40:20.068Z,1012.99
2017-12-25T03:41:20.049Z,1012.93
2017-12-25T03:42:20.033Z,1012.92
2017-12-25T03:43:20.014Z,1012.94
2017-12-25T03:44:19.995Z,1012.90
2017-12-25T03:45:19.972Z,1012.86
2017-12-25T03:46:19.956Z,1012.82
2017-12-25T03:47:19.934Z,1012.83
2017-12-25T03:48:19.912Z,1012.81
2017-12-25T03:49:19.895Z,1012.77
2017-12-25T03:50:19.877Z,1012.78
2017-12-25T03:51:19.860Z,1012.77
2017-12-25T03:52:19.835Z,1012.78
2017-12-25T03:53:19.822Z,1012.76
2017-12-25T03:54:19.798Z,1012.74
2017-12-25T03:55:19.788Z,1012.75
2017-12-25T03:56:19.754Z,1012.71
2017-12-25T03:57:19.744Z,1012.66
2017-12-25T03:58:19.715Z,1012.69
2017-12-25T03:59:19.703Z,1012.69
2017-12-25T04:00:19.680Z,1012.69
2017-12-25T04:01:19.661Z,1012.69
2017-12-25T04:02:19.641Z,1012.71
2017-12-25T04:03:19.619Z,1012.66
2017-12-25T04:04:19.625Z,1012.63
2017-12-25T04:05:19.577Z,1012.65
2017-12-25T04:06:19.559Z,1012.63
2017-12-25T04:07:19.540Z,1012.63
2017-12-25T04:08:19.518Z,1012.61
2017-12-25T04:09:19.499Z,1012.59
2017-12-25T04:10:19.487Z,1012.56
2017-12-25T04:11:19.460Z,1012.60
2017-12-25T04:12:19.447Z,1012.50
2017-12-25T04:13:19.422Z,1012.55
2017-12-25T04:14:19.403Z,1012.53
2017-12-25T04:15:19.382Z,1012.53
2017-12-25T04:16:19.370Z,1012.55
2017-12-25T04:17:19.344Z,1012.55
2017-12-25T04:18:19.320Z,1012.50
2017-12-25T04:19:19.302Z,1012.51
2017-12-25T04:20:19.293Z,1012.42
2017-12-25T04:21:19.264Z,1012.47
2017-12-25T04:22:19.245Z,1012.52
2017-12-25T04:23:19.224Z,1012.43
2017-12-25T04:24:19.209Z,1012.44
2017-12-25T04:25:19.187Z,1012.46
2017-12-25T04:26:19.173Z,1012.45
2017-12-25T04:27:19.145Z,1012.46
2017-12-25T04:28:19.129Z,1012.47
2017-12-25T04:29:19.107Z,1012.46
2017-12-25T04:30:19.091Z,1012.43
2017-12-25T04:31:19.070Z,1012.43
2017-12-25T04:32:19.055Z,1012.42
2017-12-25T04:33:19.026Z,1012.41
2017-12-25T04:34:19.011Z,1012.36
2017-12-25T04:35:18.990Z,1012.41
2017-12-25T04:36:18.970Z,1012.36
2017-12-25T04:37:18.950Z,1012.36
2017-12-25T04:38:18.929Z,1012.38
2017-12-25T04:39:18.909Z,1012.39
2017-12-25T04:40:18.891Z,1012.37
2017-12-25T04:41:18.874Z,1012.41
2017-12-25T04:42:18.855Z,1012.37
2017-12-25T04:43:18.833Z,1012.34
2017-12-25T04:44:18.813Z,1012.35
2017-12-25T04:45:18.797Z,1012.22
2017-12-25T04:46:18.775Z,1012.25
2017-12-25T04:47:18.756Z,1012.26
2017-12-25T04:48:18.737Z,1012.23
2017-12-25T04:49:18.721Z,1012.22
2017-12-25T04:50:18.695Z,1012.21
2017-12-25T04:51:18.681Z,1012.29
2017-12-25T04:52:18.657Z,1012.23
2017-12-25T04:53:18.640Z,1012.28
2017-12-25T04:54:18.621Z,1012.28
2017-12-25T04:55:18.599Z,1012.24
2017-12-25T04:56:18.578Z,1012.26
2017-12-25T04:57:18.559Z,1012.23
2017-12-25T04:58:18.539Z,1012.22
2017-12-25T04:59:18.518Z,1012.19
2017-12-25T05:00:18.502Z,1012.12
2017-12-25T05:01:18.478Z,1012.14
2017-12-25T05:02:18.456Z,1012.18
2017-12-25T05:03:18.439Z,1012.14
2017-12-25T05:04:18.420Z,1012.11
2017-12-25T05:05:18.400Z,1012.11
2017-12-25T05:06:18.379Z,1012.12
2017-12-25T05:07:18.359Z,1012.13
2017-12-25T05:08:18.346Z,1012.15
2017-12-25T05:09:18.318Z,1012.19
2017-12-25T05:10:18.304Z,1012.15
2017-12-25T05:11:18.282Z,1012.15
2017-12-25T05:12:18.261Z,1012.12
2017-12-25T05:13:18.243Z,1012.12
2017-12-25T05:14:18.229Z,1012.19
2017-12-25T05:15:18.202Z,1012.20
2017-12-25T05:16:18.184Z,1012.19
2017-12-25T05:17:18.168Z,1012.20
2017-12-25T05:18:18.146Z,1012.15
2017-12-25T05:19:18.123Z,1012.18
2017-12-25T05:20:18.108Z,1012.14
2017-12-25T05:21:18.092Z,1012.16
2017-12-25T05:22:18.064Z,1012.16
2017-12-25T05:23:18.048Z,1012.10
2017-12-25T05:24:18.025Z,1012.16
2017-12-25T05:25:18.004Z,1012.12
2017-12-25T05:26:17.982Z,1012.12
2017-12-25T05:27:17.965Z,1012.13
2017-12-25T05:28:17.948Z,1012.05
2017-12-25T05:29:17.928Z,1012.06
2017-12-25T05:30:17.909Z,1012.10
2017-12-25T05:31:17.886Z,1012.11
2017-12-25T05:32:17.869Z,1012.01
2017-12-25T05:33:17.846Z,1012.05
2017-12-25T05:34:17.828Z,1012.04
2017-12-25T05:35:17.806Z,1012.00
2017-12-25T05:36:17.789Z,1011.97
2017-12-25T05:37:17.769Z,1011.95
2017-12-25T05:38:17.750Z,1011.96
2017-12-25T05:39:17.730Z,1011.94
2017-12-25T05:40:17.710Z,1011.95
2017-12-25T05:41:17.690Z,1011.97
2017-12-25T05:42:17.669Z,1011.93
2017-12-25T05:43:17.656Z,1011.89
2017-12-25T05:44:17.633Z,1011.96
2017-12-25T05:45:17.610Z,1011.86
2017-12-25T05:46:17.593Z,1011.90
2017-12-25T05:47:17.580Z,1011.92
2017-12-25T05:48:17.555Z,1011.90
2017-12-25T05:49:17.538Z,1011.90
2017-12-25T05:50:17.513Z,1011.90
2017-12-25T05:51:17.493Z,1011.92
2017-12-25T05:52:17.474Z,1011.94
2017-12-25T05:53:17.452Z,1011.85
2017-12-25T05:54:17.435Z,1011.81
2017-12-25T05:55:17.411Z,1011.84
2017-12-25T05:56:17.395Z,1011.77
2017-12-25T05:57:17.379Z,1011.85
2017-12-25T05:58:17.357Z,1011.89
2017-12-25T05:59:17.339Z,1011.87
2017-12-25T06:00:17.315Z,1011.81
2017-12-25T06:01:17.292Z,1011.88
2017-12-25T06:02:17.277Z,1011.85
2017-12-25T06:03:17.260Z,1011.87
2017-12-25T06:04:17.239Z,1011.79
2017-12-25T06:05:17.220Z,1011.79
2017-12-25T06:06:17.196Z,1011.78
2017-12-25T06:07:17.180Z,1011.77
2017-12-25T06:08:17.157Z,1011.85
2017-12-25T06:09:17.139Z,1011.80
2017-12-25T06:10:17.119Z,1011.79
2017-12-25T06:11:17.096Z,1011.79
2017-12-25T06:12:17.079Z,1011.84
2017-12-25T06:13:17.059Z,1011.77
2017-12-25T06:14:17.039Z,1011.82
2017-12-25T06:15:17.022Z,1011.81
2017-12-25T06:16:16.998Z,1011.81
2017-12-25T06:17:16.983Z,1011.82
2017-12-25T06:18:16.962Z,1011.81
2017-12-25T06:19:16.942Z,1011.84
2017-12-25T06:20:16.918Z,1011.80
2017-12-25T06:21:16.898Z,1011.77
2017-12-25T06:22:16.891Z,1011.79
2017-12-25T06:23:16.862Z,1011.81
2017-12-25T06:24:16.838Z,1011.74
2017-12-25T06:25:16.818Z,1011.80
2017-12-25T06:26:16.801Z,1011.76
2017-12-25T06:27:16.779Z,1011.72
2017-12-25T06:28:16.761Z,1011.82
2017-12-25T06:29:16.742Z,1011.78
2017-12-25T06:30:16.718Z,1011.77
2017-12-25T06:31:16.711Z,1011.84
2017-12-25T06:32:16.683Z,1011.83
2017-12-25T06:33:16.659Z,1011.81
2017-12-25T06:34:16.642Z,1011.79
2017-12-25T06:35:16.627Z,1011.78
2017-12-25T06:36:16.602Z,1011.78
2017-12-25T06:37:16.588Z,1011.82
2017-12-25T06:38:16.566Z,1011.77
2017-12-25T06:39:16.547Z,1011.82
2017-12-25T06:40:16.526Z,1011.76
2017-12-25T06:41:16.507Z,1011.77
2017-12-25T06:42:16.484Z,1011.78
2017-12-25T06:43:16.465Z,1011.76
2017-12-25T06:44:16.445Z,1011.72
2017-12-25T06:45:16.429Z,1011.77
2017-12-25T06:46:16.405Z,1011.74
2017-12-25T06:47:16.386Z,1011.71
2017-12-25T06:48:16.368Z,1011.75
2017-12-25T06:49:16.347Z,1011.75
2017-12-25T06:50:16.329Z,1011.71
2017-12-25T06:51:16.312Z,1011.74
2017-12-25T06:52:16.287Z,1011.72
2017-12-25T06:53:16.277Z,1011.69
2017-12-25T06:54:16.249Z,1011.73
2017-12-25T06:55:16.229Z,1011.67
2017-12-25T06:56:16.209Z,1011.63
2017-12-25T06:57:16.189Z,1011.68
2017-12-25T06:58:16.174Z,1011.63
2017-12-25T06:59:16.147Z,1011.63
2017-12-25T07:00:16.136Z,1011.61
2017-12-25T07:01:16.112Z,1011.58
2017-12-25T07:02:16.096Z,1011.59
2017-12-25T07:03:16.068Z,1011.62
2017-12-25T07:04:16.048Z,1011.59
2017-12-25T07:05:16.029Z,1011.55
2017-12-25T07:06:16.008Z,1011.55
2017-12-25T07:07:15.990Z,1011.55
2017-12-25T07:08:15.969Z,1011.54
2017-12-25T07:09:15.949Z,1011.50
2017-12-25T07:10:15.928Z,1011.54
2017-12-25T07:11:15.939Z,1011.50
2017-12-25T07:12:15.888Z,1011.54
2017-12-25T07:13:15.868Z,1011.57
2017-12-25T07:14:15.848Z,1011.58
2017-12-25T07:15:15.831Z,1011.57
2017-12-25T07:16:15.808Z,1011.61
2017-12-25T07:17:15.787Z,1011.57
2017-12-25T07:18:15.772Z,1011.50
2017-12-25T07:19:15.758Z,1011.56
2017-12-25T07:20:15.728Z,1011.57
2017-12-25T07:21:15.708Z,1011.54
2017-12-25T07:22:15.688Z,1011.58
2017-12-25T07:23:15.667Z,1011.53
2017-12-25T07:24:15.649Z,1011.49
2017-12-25T07:25:15.628Z,1011.51
2017-12-25T07:26:15.620Z,1011.53
2017-12-25T07:27:15.588Z,1011.58
2017-12-25T07:28:15.568Z,1011.54
2017-12-25T07:29:15.548Z,1011.48
2017-12-25T07:30:15.529Z,1011.56
2017-12-25T07:31:15.508Z,1011.53
2017-12-25T07:32:15.494Z,1011.53
2017-12-25T07:33:15.475Z,1011.48
2017-12-25T07:34:15.459Z,1011.49
2017-12-25T07:35:15.429Z,1011.50
2017-12-25T07:36:15.414Z,1011.45
2017-12-25T07:37:15.389Z,1011.43
2017-12-25T07:38:15.375Z,1011.49
2017-12-25T07:39:15.349Z,1011.50
2017-12-25T07:40:15.335Z,1011.50
2017-12-25T07:41:15.663Z,1011.49
2017-12-25T07:42:15.290Z,1011.48
2017-12-25T07:43:15.268Z,1011.53
2017-12-25T07:44:15.258Z,1011.57
2017-12-25T07:45:15.230Z,1011.49
2017-12-25T07:46:15.213Z,1011.47
2017-12-25T07:47:15.194Z,1011.46
2017-12-25T07:48:15.178Z,1011.48
2017-12-25T07:49:15.155Z,1011.44
2017-12-25T07:50:15.134Z,1011.49
2017-12-25T07:51:15.115Z,1011.47
2017-12-25T07:52:15.092Z,1011.50
2017-12-25T07:53:15.073Z,1011.46
2017-12-25T07:54:15.050Z,1011.52
2017-12-25T07:55:15.028Z,1011.49
2017-12-25T07:56:15.012Z,1011.47
2017-12-25T07:57:14.994Z,1011.38
2017-12-25T07:58:14.969Z,1011.47
2017-12-25T07:59:14.958Z,1011.43
2017-12-25T08:00:14.985Z,1011.44
2017-12-25T08:01:14.916Z,1011.45
2017-12-25T08:02:14.900Z,1011.44
2017-12-25T08:03:14.876Z,1011.38
2017-12-25T08:04:14.852Z,1011.50
2017-12-25T08:05:14.833Z,1011.49
2017-12-25T08:06:14.813Z,1011.43
2017-12-25T08:07:14.800Z,1011.44
2017-12-25T08:08:14.773Z,1011.41
2017-12-25T08:09:14.757Z,1011.43
2017-12-25T08:10:14.733Z,1011.47
2017-12-25T08:11:14.716Z,1011.36
2017-12-25T08:12:14.695Z,1011.36
2017-12-25T08:13:14.679Z,1011.33
2017-12-25T08:14:14.654Z,1011.34
2017-12-25T08:15:14.632Z,1011.36
2017-12-25T08:16:14.614Z,1011.30
2017-12-25T08:17:14.596Z,1011.31
2017-12-25T08:18:14.574Z,1011.31
2017-12-25T08:19:14.569Z,1011.30
2017-12-25T08:20:14.538Z,1011.28
2017-12-25T08:21:14.515Z,1011.32
2017-12-25T08:22:14.503Z,1011.23
2017-12-25T08:23:14.481Z,1011.32
2017-12-25T08:24:14.460Z,1011.30
2017-12-25T08:25:14.443Z,1011.24
2017-12-25T08:26:14.420Z,1011.26
2017-12-25T08:27:14.404Z,1011.31
2017-12-25T08:28:14.376Z,1011.33
2017-12-25T08:29:14.353Z,1011.32
2017-12-25T08:30:14.337Z,1011.30
2017-12-25T08:31:14.322Z,1011.31
2017-12-25T08:32:14.293Z,1011.27
2017-12-25T08:33:14.275Z,1011.31
2017-12-25T08:34:14.259Z,1011.25
2017-12-25T08:35:14.243Z,1011.27
2017-12-25T08:36:14.223Z,1011.28
2017-12-25T08:37:14.199Z,1011.27
2017-12-25T08:38:14.182Z,1011.24
2017-12-25T08:39:14.161Z,1011.30
2017-12-25T08:40:14.141Z,1011.30
2017-12-25T08:41:14.121Z,1011.27
2017-12-25T08:42:14.099Z,1011.26
2017-12-25T08:43:14.083Z,1011.29
2017-12-25T08:44:14.062Z,1011.26
2017-12-25T08:45:14.040Z,1011.29
2017-12-25T08:46:14.020Z,1011.30
2017-12-25T08:47:14.004Z,1011.29
2017-12-25T08:48:13.982Z,1011.30
2017-12-25T08:49:13.966Z,1011.26
2017-12-25T08:50:13.941Z,1011.28
2017-12-25T08:51:13.930Z,1011.30
2017-12-25T08:52:13.901Z,1011.31
2017-12-25T08:53:13.879Z,1011.27
2017-12-25T08:54:13.865Z,1011.24
2017-12-25T08:55:13.843Z,1011.22
2017-12-25T08:56:13.823Z,1011.26
2017-12-25T08:57:13.801Z,1011.27
2017-12-25T08:58:13.783Z,1011.28
2017-12-25T08:59:13.767Z,1011.27
2017-12-25T09:00:13.746Z,1011.25
2017-12-25T09:01:13.734Z,1011.25
2017-12-25T09:02:13.703Z,1011.26
2017-12-25T09:03:13.685Z,1011.31
2017-12-25T09:04:13.662Z,1011.26
2017-12-25T09:05:13.651Z,1011.27
2017-12-25T09:06:13.633Z,1011.26
2017-12-25T09:07:13.608Z,1011.29
2017-12-25T09:08:13.585Z,1011.29
2017-12-25T09:09:13.570Z,1011.35
2017-12-25T09:10:13.546Z,1011.36
2017-12-25T09:11:13.528Z,1011.32
2017-12-25T09:12:13.509Z,1011.30
2017-12-25T09:13:13.505Z,1011.30
2017-12-25T09:14:13.466Z,1011.33
2017-12-25T09:15:13.448Z,1011.28
2017-12-25T09:16:13.426Z,1011.32
2017-12-25T09:17:13.408Z,1011.30
2017-12-25T09:18:13.386Z,1011.29
2017-12-25T09:19:13.374Z,1011.31
2017-12-25T09:20:13.345Z,1011.31
2017-12-25T09:21:13.329Z,1011.33
2017-12-25T09:22:13.310Z,1011.31
2017-12-25T09:23:13.292Z,1011.33
2017-12-25T09:24:13.272Z,1011.26
2017-12-25T09:25:13.248Z,1011.31
2017-12-25T09:26:13.233Z,1011.29
2017-12-25T09:27:13.219Z,1011.31
2017-12-25T09:28:13.196Z,1011.33
2017-12-25T09:29:13.178Z,1011.32
2017-12-25T09:30:13.156Z,1011.39
2017-12-25T09:31:13.132Z,1011.38
2017-12-25T09:32:13.118Z,1011.37
2017-12-25T09:33:13.102Z,1011.36
2017-12-25T09:34:13.081Z,1011.39
2017-12-25T09:35:13.055Z,1011.35
2017-12-25T09:36:13.037Z,1011.36
2017-12-25T09:37:13.014Z,1011.33
2017-12-25T09:38:13.003Z,1011.38
2017-12-25T09:39:12.975Z,1011.44
2017-12-25T09:40:12.959Z,1011.45
2017-12-25T09:41:12.936Z,1011.46
2017-12-25T09:42:12.918Z,1011.49
2017-12-25T09:43:12.897Z,1011.47
2017-12-25T09:44:12.878Z,1011.46
2017-12-25T09:45:12.857Z,1011.50
2017-12-25T09:46:12.840Z,1011.48
2017-12-25T09:47:12.821Z,1011.51
2017-12-25T09:48:12.799Z,1011.45
2017-12-25T09:49:12.779Z,1011.50
2017-12-25T09:50:12.764Z,1011.44
2017-12-25T09:51:12.741Z,1011.48
2017-12-25T09:52:12.722Z,1011.45
2017-12-25T09:53:12.715Z,1011.42
2017-12-25T09:54:12.684Z,1011.43
2017-12-25T09:55:12.668Z,1011.42
2017-12-25T09:56:12.649Z,1011.43
2017-12-25T09:57:12.628Z,1011.44
2017-12-25T09:58:12.606Z,1011.39
2017-12-25T09:59:12.584Z,1011.39
2017-12-25T10:00:12.562Z,1011.36
2017-12-25T10:01:12.546Z,1011.38
2017-12-25T10:02:12.535Z,1011.32
2017-12-25T10:03:12.506Z,1011.32
2017-12-25T10:04:12.491Z,1011.31
2017-12-25T10:05:12.467Z,1011.32
2017-12-25T10:06:12.451Z,1011.32
2017-12-25T10:07:12.429Z,1011.29
2017-12-25T10:08:12.416Z,1011.29
2017-12-25T10:09:12.387Z,1011.30
2017-12-25T10:10:12.368Z,1011.29
2017-12-25T10:11:12.350Z,1011.26
2017-12-25T10:12:12.328Z,1011.25
2017-12-25T10:13:12.312Z,1011.21
2017-12-25T10:14:12.288Z,1011.17
2017-12-25T10:15:12.280Z,1011.20
2017-12-25T10:16:12.254Z,1011.23
2017-12-25T10:17:12.228Z,1011.17
2017-12-25T10:18:12.214Z,1011.17
2017-12-25T10:19:12.191Z,1011.19
2017-12-25T10:20:12.176Z,1011.12
2017-12-25T10:21:12.150Z,1011.11
2017-12-25T10:22:12.137Z,1011.07
2017-12-25T10:23:12.117Z,1011.07
2017-12-25T10:24:12.094Z,1011.06
2017-12-25T10:25:12.086Z,1011.05
2017-12-25T10:26:12.054Z,1011.06
2017-12-25T10:27:12.042Z,1011.03
2017-12-25T10:28:12.021Z,1011.03
2017-12-25T10:29:12.002Z,1011.00
2017-12-25T10:30:11.978Z,1011.00
2017-12-25T10:31:11.969Z,1010.97
2017-12-25T10:32:11.936Z,1010.97
2017-12-25T10:33:11.917Z,1010.98
2017-12-25T10:34:11.898Z,1010.92
2017-12-25T10:35:11.877Z,1010.89
2017-12-25T10:36:11.858Z,1010.85
2017-12-25T10:37:11.839Z,1010.87
2017-12-25T10:38:11.825Z,1010.86
2017-12-25T10:39:11.800Z,1010.88
2017-12-25T10:40:11.787Z,1010.83
2017-12-25T10:41:11.767Z,1010.81
2017-12-25T10:42:11.749Z,1010.75
2017-12-25T10:43:11.727Z,1010.74
2017-12-25T10:44:11.710Z,1010.69
2017-12-25T10:45:11.686Z,1010.73
2017-12-25T10:46:11.669Z,1010.66
2017-12-25T10:47:11.644Z,1010.70
2017-12-25T10:48:11.640Z,1010.58
2017-12-25T10:49:11.605Z,1010.59
2017-12-25T10:50:11.589Z,1010.54
2017-12-25T10:51:11.567Z,1010.54
2017-12-25T10:52:11.544Z,1010.56
2017-12-25T10:53:11.527Z,1010.55
2017-12-25T10:54:11.515Z,1010.55
2017-12-25T10:55:11.487Z,1010.53
2017-12-25T10:56:11.473Z,1010.42
2017-12-25T10:57:11.448Z,1010.42
2017-12-25T10:58:11.426Z,1010.46
2017-12-25T10:59:11.406Z,1010.38
2017-12-25T11:00:11.401Z,1010.40
2017-12-25T11:01:11.370Z,1010.39
2017-12-25T11:02:11.349Z,1010.41
2017-12-25T11:03:11.332Z,1010.36
2017-12-25T11:04:11.315Z,1010.31
2017-12-25T11:05:11.287Z,1010.24
2017-12-25T11:06:11.291Z,1010.34
2017-12-25T11:07:11.258Z,1010.31
2017-12-25T11:08:11.232Z,1010.31
2017-12-25T11:09:11.218Z,1010.26
2017-12-25T11:10:11.198Z,1010.24
2017-12-25T11:11:11.173Z,1010.24
2017-12-25T11:12:11.154Z,1010.20
2017-12-25T11:13:11.136Z,1010.19
2017-12-25T11:14:11.113Z,1010.20
2017-12-25T11:15:11.102Z,1010.21
2017-12-25T11:16:11.075Z,1010.19
2017-12-25T11:17:11.059Z,1010.18
2017-12-25T11:18:11.038Z,1010.12
2017-12-25T11:19:11.017Z,1010.09
2017-12-25T11:20:10.995Z,1010.13
2017-12-25T11:21:10.977Z,1010.15
2017-12-25T11:22:10.961Z,1010.01
2017-12-25T11:23:10.942Z,1010.00
2017-12-25T11:24:10.919Z,1010.06
2017-12-25T11:25:10.902Z,1010.07
2017-12-25T11:26:10.878Z,1010.05
2017-12-25T11:27:10.857Z,1010.01
2017-12-25T11:28:10.839Z,1010.04
2017-12-25T11:29:10.858Z,1010.01
2017-12-25T11:30:10.800Z,1009.95
2017-12-25T11:31:10.778Z,1010.01
2017-12-25T11:32:10.762Z,1009.94
2017-12-25T11:33:10.739Z,1009.97
2017-12-25T11:34:10.718Z,1009.95
2017-12-25T11:35:10.700Z,1009.93
2017-12-25T11:36:10.690Z,1009.86
2017-12-25T11:37:10.672Z,1009.90
2017-12-25T11:38:10.654Z,1009.87
2017-12-25T11:39:10.640Z,1009.89
2017-12-25T11:40:10.610Z,1009.92
2017-12-25T11:41:10.583Z,1009.87
2017-12-25T11:42:10.566Z,1009.83
2017-12-25T11:43:10.544Z,1009.81
2017-12-25T11:44:10.536Z,1009.79
2017-12-25T11:45:10.508Z,1009.75
2017-12-25T11:46:10.489Z,1009.78
2017-12-25T11:47:10.483Z,1009.77
2017-12-25T11:48:10.467Z,1009.76
2017-12-25T11:49:10.426Z,1009.79
2017-12-25T11:50:10.410Z,1009.74
2017-12-25T11:51:10.385Z,1009.69
2017-12-25T11:52:10.379Z,1009.69
2017-12-25T11:53:10.365Z,1009.67
2017-12-25T11:54:10.332Z,1009.63
2017-12-25T11:55:10.320Z,1009.61
2017-12-25T11:56:10.289Z,1009.61
2017-12-25T11:58:10.250Z,1009.68
2017-12-25T11:59:10.231Z,1009.56
2017-12-25T12:00:10.208Z,1009.57
2017-12-25T12:01:10.195Z,1009.56
2017-12-25T12:02:10.167Z,1009.51
2017-12-25T12:03:10.150Z,1009.51
2017-12-25T12:04:10.130Z,1009.52
2017-12-25T12:05:10.114Z,1009.51
2017-12-25T12:06:10.090Z,1009.45